createdAt,value
2018-12-25T00:00:54.999Z,1026.68
2018-12-25T00:01:55.025Z,1026.70
2018-12-25T00:02:54.934Z,1026.67
2018-12-25T00:03:54.931Z,1026.62
2018-12-25T00:04:54.863Z,1026.63
2018-12-25T00:05:54.946Z,1026.67
2018-12-25T00:06:54.822Z,1026.63
2018-12-25T00:07:55.874Z,1026.70
2018-12-25T00:08:54.765Z,1026.63
2018-12-25T00:09:54.768Z,1026.67
2018-12-25T00:10:54.711Z,1026.59
2018-12-25T00:11:54.731Z,1026.61
2018-12-25T00:12:54.644Z,1026.66
2018-12-25T00:13:54.705Z,1026.63
2018-12-25T00:14:54.580Z,1026.64
2018-12-25T00:15:54.599Z,1026.66
2018-12-25T00:16:54.504Z,1026.66
2018-12-25T00:17:54.516Z,1026.70
2018-12-25T00:18:54.455Z,1026.69
2018-12-25T00:19:54.541Z,1026.65
2018-12-25T00:20:54.419Z,1026.70
2018-12-25T00:21:55.157Z,1026.67
2018-12-25T00:22:54.337Z,1026.62
2018-12-25T00:23:54.358Z,1026.64
2018-12-25T00:24:54.347Z,1026.66
2018-12-25T00:25:54.365Z,1026.68
2018-12-25T00:26:54.217Z,1026.66
2018-12-25T00:27:54.333Z,1026.68
2018-12-25T00:28:54.170Z,1026.73
2018-12-25T00:29:54.195Z,1026.75
2018-12-25T00:30:54.105Z,1026.77
2018-12-25T00:31:54.105Z,1026.76
2018-12-25T00:32:54.055Z,1026.83
2018-12-25T00:33:54.134Z,1026.79
2018-12-25T00:34:53.981Z,1026.81
2018-12-25T00:35:54.064Z,1026.79
2018-12-25T00:36:53.918Z,1026.79
2018-12-25T00:37:54.510Z,1026.82
2018-12-25T00:38:53.866Z,1026.83
2018-12-25T00:39:53.928Z,1026.77
2018-12-25T00:40:53.888Z,1026.83
2018-12-25T00:41:53.857Z,1026.79
2018-12-25T00:42:53.750Z,1026.82
2018-12-25T00:43:53.770Z,1026.85
2018-12-25T00:44:53.672Z,1026.89
2018-12-25T00:45:53.687Z,1026.89
2018-12-25T00:46:53.660Z,1026.88
2018-12-25T00:47:53.842Z,1026.89
2018-12-25T00:48:53.555Z,1026.92
2018-12-25T00:49:53.611Z,1026.90
2018-12-25T00:50:53.538Z,1026.95
2018-12-25T00:51:53.513Z,1026.89
2018-12-25T00:52:53.432Z,1026.89
2018-12-25T00:53:53.535Z,1026.93
2018-12-25T00:54:53.393Z,1026.90
2018-12-25T00:55:53.451Z,1026.92
2018-12-25T00:56:53.332Z,1026.91
2018-12-25T00:57:53.367Z,1026.93
2018-12-25T00:58:53.256Z,1026.93
2018-12-25T00:59:53.265Z,1026.89
2018-12-25T01:00:53.241Z,1026.92
2018-12-25T01:01:53.353Z,1026.95
2018-12-25T01:02:53.144Z,1026.94
2018-12-25T01:03:53.197Z,1026.93
2018-12-25T01:04:53.097Z,1026.94
2018-12-25T01:05:54.123Z,1026.93
2018-12-25T01:06:53.026Z,1026.96
2018-12-25T01:07:53.035Z,1026.97
2018-12-25T01:08:52.966Z,1026.94
2018-12-25T01:09:53.029Z,1026.91
2018-12-25T01:10:52.925Z,1026.92
2018-12-25T01:11:53.977Z,1026.97
2018-12-25T01:12:52.852Z,1026.92
2018-12-25T01:13:52.871Z,1026.92
2018-12-25T01:14:54.433Z,1026.91
2018-12-25T01:15:52.933Z,1026.86
2018-12-25T01:16:52.728Z,1026.86
2018-12-25T01:17:52.822Z,1026.89
2018-12-25T01:18:52.693Z,1026.89
2018-12-25T01:19:52.695Z,1026.86
2018-12-25T01:20:52.614Z,1026.91
2018-12-25T01:21:52.621Z,1026.90
2018-12-25T01:22:52.674Z,1026.81
2018-12-25T01:23:52.657Z,1026.86
2018-12-25T01:24:52.493Z,1026.86
2018-12-25T01:25:52.504Z,1026.88
2018-12-25T01:26:52.438Z,1026.83
2018-12-25T01:27:53.447Z,1026.78
2018-12-25T01:28:52.385Z,1026.79
2018-12-25T01:29:52.435Z,1026.78
2018-12-25T01:30:52.301Z,1026.79
2018-12-25T01:31:52.332Z,1026.76
2018-12-25T01:32:52.276Z,1026.82
2018-12-25T01:33:53.272Z,1026.86
2018-12-25T01:34:52.205Z,1026.88
2018-12-25T01:35:52.291Z,1026.89
2018-12-25T01:36:52.148Z,1026.85
2018-12-25T01:37:52.240Z,1026.82
2018-12-25T01:38:52.066Z,1026.82
2018-12-25T01:39:52.090Z,1026.82
2018-12-25T01:40:52.024Z,1026.79
2018-12-25T01:41:52.096Z,1026.82
2018-12-25T01:42:51.943Z,1026.83
2018-12-25T01:43:52.012Z,1026.85
2018-12-25T01:44:51.942Z,1026.90
2018-12-25T01:45:51.950Z,1026.84
2018-12-25T01:46:51.834Z,1026.87
2018-12-25T01:47:51.830Z,1026.85
2018-12-25T01:48:51.772Z,1026.82
2018-12-25T01:49:51.843Z,1026.84
2018-12-25T01:50:51.719Z,1026.88
2018-12-25T01:51:51.796Z,1026.84
2018-12-25T01:52:51.650Z,1026.89
2018-12-25T01:53:51.749Z,1026.91
2018-12-25T01:54:51.592Z,1026.90
2018-12-25T01:55:51.655Z,1026.88
2018-12-25T01:56:51.530Z,1026.94
2018-12-25T01:57:51.579Z,1026.91
2018-12-25T01:58:51.549Z,1026.97
2018-12-25T01:59:51.468Z,1026.95
2018-12-25T02:00:51.419Z,1026.96
2018-12-25T02:01:51.483Z,1026.98
2018-12-25T02:02:51.348Z,1027.04
2018-12-25T02:03:51.395Z,1027.04
2018-12-25T02:04:51.301Z,1027.12
2018-12-25T02:05:52.338Z,1027.12
2018-12-25T02:06:51.229Z,1027.14
2018-12-25T02:07:51.217Z,1027.17
2018-12-25T02:08:51.177Z,1027.12
2018-12-25T02:09:59.144Z,1027.16
2018-12-25T02:10:51.113Z,1027.13
2018-12-25T02:11:58.646Z,1027.15
2018-12-25T02:12:51.062Z,1027.16
2018-12-25T02:14:15.661Z,1027.13
2018-12-25T02:14:51.021Z,1027.17
2018-12-25T02:15:51.059Z,1027.14
2018-12-25T02:16:50.952Z,1027.17
2018-12-25T02:17:50.971Z,1027.12
2018-12-25T02:18:50.877Z,1027.08
2018-12-25T02:19:50.895Z,1027.15
2018-12-25T02:20:50.821Z,1027.09
2018-12-25T02:21:50.905Z,1027.09
2018-12-25T02:22:50.761Z,1027.08
2018-12-25T02:23:50.816Z,1027.08
2018-12-25T02:24:50.695Z,1027.09
2018-12-25T02:25:50.717Z,1027.12
2018-12-25T02:26:50.656Z,1027.16
2018-12-25T02:27:50.632Z,1027.11
2018-12-25T02:28:50.593Z,1027.08
2018-12-25T02:29:50.658Z,1027.06
2018-12-25T02:30:50.533Z,1027.06
2018-12-25T02:31:50.574Z,1027.07
2018-12-25T02:32:50.467Z,1027.07
2018-12-25T02:33:50.462Z,1027.07
2018-12-25T02:34:50.409Z,1027.06
2018-12-25T02:35:50.482Z,1027.07
2018-12-25T02:36:50.346Z,1027.05
2018-12-25T02:37:50.402Z,1027.00
2018-12-25T02:38:50.295Z,1026.95
2018-12-25T02:39:50.330Z,1026.94
2018-12-25T02:40:50.220Z,1026.91
2018-12-25T02:41:50.223Z,1026.91
2018-12-25T02:42:50.169Z,1026.93
2018-12-25T02:43:50.225Z,1026.91
2018-12-25T02:44:50.096Z,1026.90
2018-12-25T02:45:50.136Z,1026.92
2018-12-25T02:46:50.038Z,1026.94
2018-12-25T02:47:50.048Z,1026.94
2018-12-25T02:48:49.983Z,1026.97
2018-12-25T02:49:50.709Z,1027.00
2018-12-25T02:50:49.932Z,1026.92
2018-12-25T02:51:49.967Z,1026.91
2018-12-25T02:52:49.874Z,1026.90
2018-12-25T02:53:49.886Z,1026.95
2018-12-25T02:54:49.817Z,1026.93
2018-12-25T02:55:49.840Z,1026.87
2018-12-25T02:56:49.783Z,1026.84
2018-12-25T02:57:49.808Z,1026.85
2018-12-25T02:58:49.677Z,1026.81
2018-12-25T02:59:49.711Z,1026.78
2018-12-25T03:00:49.632Z,1026.82
2018-12-25T03:01:49.642Z,1026.76
2018-12-25T03:02:49.562Z,1026.73
2018-12-25T03:03:49.641Z,1026.76
2018-12-25T03:04:49.517Z,1026.73
2018-12-25T03:05:49.561Z,1026.76
2018-12-25T03:06:49.434Z,1026.73
2018-12-25T03:07:49.482Z,1026.73
2018-12-25T03:08:49.379Z,1026.72
2018-12-25T03:09:49.371Z,1026.77
2018-12-25T03:10:49.330Z,1026.76
2018-12-25T03:11:49.394Z,1026.75
2018-12-25T03:12:49.329Z,1026.72
2018-12-25T03:13:49.310Z,1026.67
2018-12-25T03:14:49.203Z,1026.70
2018-12-25T03:15:49.227Z,1026.75
2018-12-25T03:16:49.136Z,1026.69
2018-12-25T03:17:49.236Z,1026.62
2018-12-25T03:18:49.173Z,1026.61
2018-12-25T03:19:49.158Z,1026.61
2018-12-25T03:20:49.022Z,1026.56
2018-12-25T03:21:49.068Z,1026.60
2018-12-25T03:22:48.977Z,1026.55
2018-12-25T03:23:48.960Z,1026.59
2018-12-25T03:24:48.927Z,1026.56
2018-12-25T03:25:48.982Z,1026.58
2018-12-25T03:26:48.857Z,1026.54
2018-12-25T03:27:48.891Z,1026.53
2018-12-25T03:28:48.796Z,1026.53
2018-12-25T03:29:48.801Z,1026.46
2018-12-25T03:30:48.721Z,1026.48
2018-12-25T03:31:48.722Z,1026.46
2018-12-25T03:32:48.989Z,1026.43
2018-12-25T03:33:48.720Z,1026.46
2018-12-25T03:34:48.611Z,1026.47
2018-12-25T03:35:48.651Z,1026.42
2018-12-25T03:36:48.558Z,1026.44
2018-12-25T03:37:48.560Z,1026.49
2018-12-25T03:38:48.487Z,1026.45
2018-12-25T03:39:50.503Z,1026.48
2018-12-25T03:40:48.471Z,1026.49
2018-12-25T03:41:48.481Z,1026.48
2018-12-25T03:42:48.365Z,1026.49
2018-12-25T03:43:48.390Z,1026.49
2018-12-25T03:44:48.301Z,1026.49
2018-12-25T03:45:48.350Z,1026.47
2018-12-25T03:46:48.248Z,1026.44
2018-12-25T03:47:48.266Z,1026.44
2018-12-25T03:48:48.182Z,1026.42
2018-12-25T03:49:48.298Z,1026.41
2018-12-25T03:50:48.131Z,1026.40
2018-12-25T03:51:48.175Z,1026.39
2018-12-25T03:52:48.066Z,1026.36
2018-12-25T03:53:48.084Z,1026.35
2018-12-25T03:54:48.016Z,1026.35
2018-12-25T03:55:47.992Z,1026.34
2018-12-25T03:56:47.963Z,1026.37
2018-12-25T03:57:48.035Z,1026.38
2018-12-25T03:58:47.881Z,1026.37
2018-12-25T03:59:47.925Z,1026.41
2018-12-25T04:00:47.838Z,1026.44
2018-12-25T04:01:47.859Z,1026.43
2018-12-25T04:02:47.792Z,1026.41
2018-12-25T04:04:02.694Z,1026.40
2018-12-25T04:04:47.711Z,1026.39
2018-12-25T04:05:48.799Z,1026.36
2018-12-25T04:06:47.647Z,1026.38
2018-12-25T04:07:54.222Z,1026.36
2018-12-25T04:08:47.587Z,1026.37
2018-12-25T04:27:01.469Z,1026.49
2018-12-25T04:27:58.428Z,1026.49
2018-12-25T04:28:58.431Z,1026.49
2018-12-25T04:29:58.361Z,1026.46
2018-12-25T04:30:58.331Z,1026.46
2018-12-25T04:31:58.356Z,1026.41
2018-12-25T04:32:58.294Z,1026.46
2018-12-25T04:33:58.340Z,1026.47
2018-12-25T04:34:58.219Z,1026.44
2018-12-25T04:35:58.284Z,1026.42
2018-12-25T04:36:58.156Z,1026.45
2018-12-25T04:37:58.196Z,1026.37
2018-12-25T04:38:58.101Z,1026.37
2018-12-25T04:39:58.107Z,1026.36
2018-12-25T04:40:58.045Z,1026.34
2018-12-25T04:41:58.015Z,1026.34
2018-12-25T04:42:57.980Z,1026.37
2018-12-25T04:43:58.032Z,1026.40
2018-12-25T04:44:57.912Z,1026.37
2018-12-25T04:45:57.999Z,1026.39
2018-12-25T04:46:57.861Z,1026.37
2018-12-25T04:47:57.847Z,1026.39
2018-12-25T04:48:57.788Z,1026.39
2018-12-25T04:49:57.862Z,1026.36
2018-12-25T04:50:57.731Z,1026.40
2018-12-25T04:51:58.789Z,1026.39
2018-12-25T04:52:57.676Z,1026.40
2018-12-25T04:53:57.685Z,1026.40
2018-12-25T04:54:57.613Z,1026.43
2018-12-25T04:55:58.621Z,1026.47
2018-12-25T04:56:57.549Z,1026.48
2018-12-25T04:58:12.459Z,1026.44
2018-12-25T04:58:57.541Z,1026.44
2018-12-25T04:59:57.524Z,1026.45
2018-12-25T05:00:57.432Z,1026.45
2018-12-25T05:01:57.431Z,1026.41
2018-12-25T05:02:57.373Z,1026.41
2018-12-25T05:03:57.447Z,1026.36
2018-12-25T05:04:57.302Z,1026.40
2018-12-25T05:05:57.373Z,1026.42
2018-12-25T05:06:57.251Z,1026.48
2018-12-25T05:07:57.268Z,1026.48
2018-12-25T05:08:57.198Z,1026.49
2018-12-25T05:09:57.177Z,1026.52
2018-12-25T05:10:57.135Z,1026.47
2018-12-25T05:11:57.200Z,1026.51
2018-12-25T05:12:57.081Z,1026.52
2018-12-25T05:13:57.112Z,1026.52
2018-12-25T05:14:57.017Z,1026.55
2018-12-25T05:15:57.019Z,1026.51
2018-12-25T05:16:56.951Z,1026.53
2018-12-25T05:17:57.101Z,1026.55
2018-12-25T05:18:56.882Z,1026.54
2018-12-25T05:19:56.949Z,1026.56
2018-12-25T05:20:56.824Z,1026.55
2018-12-25T05:21:56.854Z,1026.50
2018-12-25T05:22:56.775Z,1026.52
2018-12-25T05:23:56.771Z,1026.55
2018-12-25T05:24:56.707Z,1026.62
2018-12-25T05:25:56.778Z,1026.59
2018-12-25T05:26:56.646Z,1026.58
2018-12-25T05:27:56.714Z,1026.57
2018-12-25T05:28:56.596Z,1026.57
2018-12-25T05:29:56.604Z,1026.54
2018-12-25T05:30:56.526Z,1026.58
2018-12-25T05:31:56.629Z,1026.54
2018-12-25T05:32:56.470Z,1026.56
2018-12-25T05:33:56.524Z,1026.51
2018-12-25T05:34:56.535Z,1026.52
2018-12-25T05:35:56.452Z,1026.58
2018-12-25T05:36:56.360Z,1026.63
2018-12-25T05:37:56.351Z,1026.58
2018-12-25T05:38:56.349Z,1026.58
2018-12-25T05:39:56.370Z,1026.57
2018-12-25T05:40:56.230Z,1026.58
2018-12-25T05:41:56.285Z,1026.53
2018-12-25T05:42:56.169Z,1026.56
2018-12-25T05:43:56.186Z,1026.56
2018-12-25T05:44:56.112Z,1026.60
2018-12-25T05:45:56.100Z,1026.62
2018-12-25T05:46:56.057Z,1026.63
2018-12-25T05:47:56.112Z,1026.65
2018-12-25T05:48:55.989Z,1026.57
2018-12-25T05:49:56.026Z,1026.59
2018-12-25T05:50:55.939Z,1026.57
2018-12-25T05:51:55.931Z,1026.63
2018-12-25T05:52:55.875Z,1026.63
2018-12-25T05:53:55.952Z,1026.59
2018-12-25T05:54:55.819Z,1026.57
2018-12-25T05:55:55.859Z,1026.57
2018-12-25T05:56:55.751Z,1026.51
2018-12-25T05:57:55.773Z,1026.57
2018-12-25T05:58:55.687Z,1026.58
2018-12-25T05:59:56.710Z,1026.54
2018-12-25T06:00:55.626Z,1026.54
2018-12-25T06:01:55.697Z,1026.55
2018-12-25T06:02:55.574Z,1026.51
2018-12-25T06:03:55.605Z,1026.56
2018-12-25T06:04:55.513Z,1026.55
2018-12-25T06:05:55.560Z,1026.53
2018-12-25T06:06:55.447Z,1026.57
2018-12-25T06:07:55.522Z,1026.58
2018-12-25T06:08:55.395Z,1026.62
2018-12-25T06:09:55.447Z,1026.66
2018-12-25T06:10:55.327Z,1026.71
2018-12-25T06:11:55.362Z,1026.67
2018-12-25T06:12:55.269Z,1026.66
2018-12-25T06:13:55.266Z,1026.62
2018-12-25T06:14:55.207Z,1026.62
2018-12-25T06:15:56.209Z,1026.64
2018-12-25T06:16:55.143Z,1026.63
2018-12-25T06:17:55.197Z,1026.65
2018-12-25T06:18:55.090Z,1026.68
2018-12-25T06:19:55.097Z,1026.63
2018-12-25T06:20:55.442Z,1026.66
2018-12-25T06:21:55.026Z,1026.66
2018-12-25T06:22:54.977Z,1026.70
2018-12-25T06:23:55.037Z,1026.68
2018-12-25T06:24:54.904Z,1026.65
2018-12-25T06:25:54.960Z,1026.69
2018-12-25T06:26:54.854Z,1026.69
2018-12-25T06:27:54.855Z,1026.68
2018-12-25T06:28:54.776Z,1026.71
2018-12-25T06:29:54.849Z,1026.67
2018-12-25T06:30:54.752Z,1026.63
2018-12-25T06:31:56.751Z,1026.67
2018-12-25T06:32:54.672Z,1026.68
2018-12-25T06:33:56.758Z,1026.70
2018-12-25T06:34:54.612Z,1026.67
2018-12-25T06:35:54.615Z,1026.67
2018-12-25T06:36:54.545Z,1026.66
2018-12-25T06:37:55.547Z,1026.65
2018-12-25T06:38:54.505Z,1026.61
2018-12-25T06:39:54.540Z,1026.62
2018-12-25T06:40:54.449Z,1026.60
2018-12-25T06:41:54.456Z,1026.63
2018-12-25T06:42:54.361Z,1026.56
2018-12-25T06:43:54.371Z,1026.59
2018-12-25T06:44:54.306Z,1026.59
2018-12-25T06:45:54.385Z,1026.57
2018-12-25T06:46:54.252Z,1026.64
2018-12-25T06:47:54.303Z,1026.67
2018-12-25T06:48:54.182Z,1026.66
2018-12-25T06:49:54.202Z,1026.68
2018-12-25T06:50:54.121Z,1026.69
2018-12-25T06:51:54.211Z,1026.70
2018-12-25T06:52:54.066Z,1026.69
2018-12-25T06:53:54.131Z,1026.66
2018-12-25T06:54:54.013Z,1026.60
2018-12-25T06:55:54.033Z,1026.62
2018-12-25T06:56:53.943Z,1026.66
2018-12-25T06:57:53.952Z,1026.62
2018-12-25T06:58:53.965Z,1026.60
2018-12-25T06:59:53.956Z,1026.59
2018-12-25T07:00:53.855Z,1026.56
2018-12-25T07:01:54.900Z,1026.58
2018-12-25T07:02:53.780Z,1026.59
2018-12-25T07:04:01.558Z,1026.55
2018-12-25T07:04:53.706Z,1026.54
2018-12-25T07:05:53.790Z,1026.49
2018-12-25T07:06:53.651Z,1026.43
2018-12-25T07:07:53.698Z,1026.43
2018-12-25T07:08:53.593Z,1026.45
2018-12-25T07:09:53.617Z,1026.49
2018-12-25T07:10:53.547Z,1026.45
2018-12-25T07:12:15.550Z,1026.42
2018-12-25T07:12:53.460Z,1026.32
2018-12-25T07:13:55.481Z,1026.38
2018-12-25T07:14:53.406Z,1026.34
2018-12-25T07:15:55.481Z,1026.30
2018-12-25T07:16:53.351Z,1026.35
2018-12-25T07:17:53.699Z,1026.27
2018-12-25T07:18:53.306Z,1026.25
2018-12-25T07:19:55.297Z,1026.27
2018-12-25T07:20:53.233Z,1026.28
2018-12-25T07:21:53.288Z,1026.26
2018-12-25T07:22:53.164Z,1026.30
2018-12-25T07:23:55.233Z,1026.31
2018-12-25T07:24:53.089Z,1026.29
2018-12-25T07:26:18.068Z,1026.29
2018-12-25T07:26:53.109Z,1026.36
2018-12-25T07:28:01.110Z,1026.32
2018-12-25T07:28:52.973Z,1026.31
2018-12-25T07:29:55.085Z,1026.28
2018-12-25T07:30:52.935Z,1026.31
2018-12-25T07:31:53.997Z,1026.24
2018-12-25T07:32:54.484Z,1026.28
2018-12-25T07:33:52.867Z,1026.22
2018-12-25T07:34:57.494Z,1026.25
2018-12-25T07:35:52.782Z,1026.24
2018-12-25T07:36:52.753Z,1026.25
2018-12-25T07:37:53.550Z,1026.22
2018-12-25T07:38:52.696Z,1026.17
2018-12-25T07:39:53.740Z,1026.18
2018-12-25T07:40:52.609Z,1026.16
2018-12-25T07:41:54.680Z,1026.16
2018-12-25T07:42:52.556Z,1026.18
2018-12-25T07:43:52.669Z,1026.18
2018-12-25T07:44:52.498Z,1026.21
2018-12-25T07:45:52.544Z,1026.27
2018-12-25T07:46:52.458Z,1026.29
2018-12-25T07:47:52.449Z,1026.29
2018-12-25T07:48:52.455Z,1026.38
2018-12-25T07:49:52.362Z,1026.37
2018-12-25T07:50:52.318Z,1026.41
2018-12-25T07:51:52.393Z,1026.40
2018-12-25T07:52:52.305Z,1026.42
2018-12-25T07:53:52.325Z,1026.44
2018-12-25T07:54:52.204Z,1026.47
2018-12-25T07:55:52.217Z,1026.46
2018-12-25T07:56:52.142Z,1026.48
2018-12-25T07:57:52.123Z,1026.48
2018-12-25T07:58:52.091Z,1026.46
2018-12-25T07:59:52.150Z,1026.46
2018-12-25T08:00:52.013Z,1026.50
2018-12-25T08:01:52.050Z,1026.51
2018-12-25T08:02:51.953Z,1026.48
2018-12-25T08:03:51.966Z,1026.46
2018-12-25T08:04:51.913Z,1026.46
2018-12-25T08:05:53.478Z,1026.49
2018-12-25T08:06:51.820Z,1026.54
2018-12-25T08:07:51.889Z,1026.49
2018-12-25T08:08:51.774Z,1026.51
2018-12-25T08:09:51.819Z,1026.51
2018-12-25T08:10:51.719Z,1026.54
2018-12-25T08:11:51.837Z,1026.52
2018-12-25T08:12:51.731Z,1026.50
2018-12-25T08:13:51.758Z,1026.54
2018-12-25T08:14:51.610Z,1026.54
2018-12-25T08:15:51.640Z,1026.52
2018-12-25T08:16:51.530Z,1026.56
2018-12-25T08:17:51.549Z,1026.50
2018-12-25T08:18:51.485Z,1026.54
2018-12-25T08:19:51.556Z,1026.52
2018-12-25T08:20:51.415Z,1026.52
2018-12-25T08:21:51.487Z,1026.50
2018-12-25T08:22:51.346Z,1026.46
2018-12-25T08:23:51.386Z,1026.52
2018-12-25T08:24:51.298Z,1026.54
2018-12-25T08:25:51.293Z,1026.53
2018-12-25T08:26:51.251Z,1026.52
2018-12-25T08:27:51.338Z,1026.51
2018-12-25T08:28:51.177Z,1026.49
2018-12-25T08:29:51.230Z,1026.46
2018-12-25T08:30:51.120Z,1026.45
2018-12-25T08:31:53.183Z,1026.40
2018-12-25T08:32:51.120Z,1026.39
2018-12-25T08:33:51.043Z,1026.48
2018-12-25T08:34:51.016Z,1026.44
2018-12-25T08:35:51.060Z,1026.47
2018-12-25T08:36:50.930Z,1026.45
2018-12-25T08:37:50.982Z,1026.45
2018-12-25T08:38:50.868Z,1026.45
2018-12-25T08:39:50.876Z,1026.50
2018-12-25T08:40:50.814Z,1026.53
2018-12-25T08:41:51.441Z,1026.53
2018-12-25T08:42:50.751Z,1026.48
2018-12-25T08:43:50.802Z,1026.48
2018-12-25T08:44:50.707Z,1026.56
2018-12-25T08:45:50.724Z,1026.55
2018-12-25T08:46:50.644Z,1026.52
2018-12-25T08:47:50.593Z,1026.50
2018-12-25T08:48:50.568Z,1026.56
2018-12-25T08:49:50.530Z,1026.50
2018-12-25T08:50:50.503Z,1026.49
2018-12-25T08:51:50.499Z,1026.50
2018-12-25T08:52:50.456Z,1026.52
2018-12-25T08:53:50.422Z,1026.48
2018-12-25T08:54:50.380Z,1026.48
2018-12-25T08:55:50.358Z,1026.45
2018-12-25T08:56:50.339Z,1026.46
2018-12-25T08:57:50.913Z,1026.43
2018-12-25T08:58:50.303Z,1026.41
2018-12-25T08:59:51.308Z,1026.42
2018-12-25T09:00:50.213Z,1026.34
2018-12-25T09:01:50.203Z,1026.38
2018-12-25T09:02:50.167Z,1026.38
2018-12-25T09:03:50.111Z,1026.34
2018-12-25T09:04:50.086Z,1026.33
2018-12-25T09:05:50.061Z,1026.30
2018-12-25T09:06:50.146Z,1026.27
2018-12-25T09:07:49.993Z,1026.24
2018-12-25T09:08:58.552Z,1026.24
2018-12-25T09:09:49.922Z,1026.28
2018-12-25T09:10:49.968Z,1026.29
2018-12-25T09:11:49.867Z,1026.32
2018-12-25T09:12:49.906Z,1026.38
2018-12-25T09:13:49.809Z,1026.36
2018-12-25T09:14:49.889Z,1026.40
2018-12-25T09:15:49.833Z,1026.36
2018-12-25T09:16:57.584Z,1026.37
2018-12-25T09:17:49.679Z,1026.36
2018-12-25T09:18:50.727Z,1026.40
2018-12-25T09:19:49.638Z,1026.40
2018-12-25T09:20:50.649Z,1026.31
2018-12-25T09:21:49.586Z,1026.26
2018-12-25T09:22:50.546Z,1026.19
2018-12-25T09:23:49.501Z,1026.13
2018-12-25T09:24:56.089Z,1026.11
2018-12-25T09:25:49.448Z,1026.13
2018-12-25T09:26:49.417Z,1026.11
2018-12-25T09:27:50.490Z,1026.10
2018-12-25T09:28:49.353Z,1026.09
2018-12-25T09:29:56.607Z,1026.09
2018-12-25T09:30:49.301Z,1026.10
2018-12-25T09:31:56.037Z,1026.08
2018-12-25T09:32:49.245Z,1026.14
2018-12-25T09:33:51.237Z,1026.15
2018-12-25T09:34:49.184Z,1026.19
2018-12-25T09:35:50.228Z,1026.19
2018-12-25T09:36:49.107Z,1026.20
2018-12-25T09:37:50.137Z,1026.18
2018-12-25T09:38:49.058Z,1026.23
2018-12-25T09:39:49.045Z,1026.21
2018-12-25T09:40:48.998Z,1026.24
2018-12-25T09:41:48.999Z,1026.25
2018-12-25T09:42:48.945Z,1026.30
2018-12-25T09:43:48.899Z,1026.31
2018-12-25T09:44:48.866Z,1026.33
2018-12-25T09:46:06.227Z,1026.31
2018-12-25T09:46:48.827Z,1026.34
2018-12-25T09:47:48.803Z,1026.32
2018-12-25T09:49:05.592Z,1026.40
2018-12-25T09:49:48.727Z,1026.38
2018-12-25T09:50:48.721Z,1026.41
2018-12-25T09:51:54.486Z,1026.43
2018-12-25T09:52:48.629Z,1026.39
2018-12-25T09:54:12.579Z,1026.41
2018-12-25T09:54:48.639Z,1026.40
2018-12-25T09:55:48.544Z,1026.40
2018-12-25T09:56:48.535Z,1026.44
2018-12-25T09:57:48.484Z,1026.49
2018-12-25T09:59:09.439Z,1026.48
2018-12-25T09:59:48.417Z,1026.48
2018-12-25T10:01:48.370Z,1026.53
2018-12-25T10:10:42.964Z,1026.55
2018-12-25T10:11:20.058Z,1026.56
2018-12-25T10:12:18.962Z,1026.56
2018-12-25T10:13:19.971Z,1026.58
2018-12-25T10:14:18.889Z,1026.53
2018-12-25T10:15:19.922Z,1026.56
2018-12-25T10:16:18.830Z,1026.59
2018-12-25T10:17:18.798Z,1026.63
2018-12-25T10:18:18.832Z,1026.66
2018-12-25T10:19:27.546Z,1026.64
2018-12-25T10:20:18.811Z,1026.65
2018-12-25T10:21:19.770Z,1026.65
2018-12-25T10:22:18.646Z,1026.62
2018-12-25T10:23:18.646Z,1026.61
2018-12-25T10:24:18.581Z,1026.59
2018-12-25T10:25:27.573Z,1026.58
2018-12-25T10:26:18.516Z,1026.61
2018-12-25T10:27:19.600Z,1026.66
2018-12-25T10:28:18.469Z,1026.66
2018-12-25T10:29:18.437Z,1026.63
2018-12-25T10:30:18.398Z,1026.66
2018-12-25T10:31:18.392Z,1026.67
2018-12-25T10:32:18.353Z,1026.68
2018-12-25T10:33:18.311Z,1026.66
2018-12-25T10:34:18.282Z,1026.56
2018-12-25T10:35:18.323Z,1026.58
2018-12-25T10:36:18.223Z,1026.47
2018-12-25T10:37:19.265Z,1026.45
2018-12-25T10:38:18.160Z,1026.40
2018-12-25T10:39:18.252Z,1026.43
2018-12-25T10:40:18.103Z,1026.34
2018-12-25T10:41:18.159Z,1026.37
2018-12-25T10:42:18.040Z,1026.43
2018-12-25T10:43:20.112Z,1026.37
2018-12-25T10:44:17.972Z,1026.36
2018-12-25T10:45:18.079Z,1026.37
2018-12-25T10:46:17.945Z,1026.37
2018-12-25T10:47:17.905Z,1026.41
2018-12-25T10:48:18.922Z,1026.43
2018-12-25T10:49:17.842Z,1026.35
2018-12-25T10:50:17.799Z,1026.38
2018-12-25T10:51:18.838Z,1026.41
2018-12-25T10:52:17.740Z,1026.45
2018-12-25T10:53:17.838Z,1026.41
2018-12-25T10:54:17.692Z,1026.38
2018-12-25T10:55:19.810Z,1026.37
2018-12-25T10:56:17.632Z,1026.36
2018-12-25T10:57:17.586Z,1026.36
2018-12-25T10:58:17.564Z,1026.37
2018-12-25T10:59:17.532Z,1026.35
2018-12-25T11:00:17.510Z,1026.39
2018-12-25T11:01:17.465Z,1026.35
2018-12-25T11:02:17.486Z,1026.35
2018-12-25T11:03:17.416Z,1026.37
2018-12-25T11:04:17.381Z,1026.35
2018-12-25T11:05:17.346Z,1026.39
2018-12-25T11:06:17.318Z,1026.41
2018-12-25T11:07:17.297Z,1026.37
2018-12-25T11:08:17.263Z,1026.39
2018-12-25T11:09:17.228Z,1026.37
2018-12-25T11:10:17.328Z,1026.37
2018-12-25T11:11:17.167Z,1026.30
2018-12-25T11:12:19.182Z,1026.30
2018-12-25T11:13:17.118Z,1026.32
2018-12-25T11:14:17.202Z,1026.31
2018-12-25T11:15:17.043Z,1026.35
2018-12-25T11:16:17.116Z,1026.29
2018-12-25T11:17:16.983Z,1026.29
2018-12-25T11:18:17.125Z,1026.32
2018-12-25T11:19:16.927Z,1026.28
2018-12-25T11:20:16.891Z,1026.31
2018-12-25T11:21:17.060Z,1026.32
2018-12-25T11:22:19.884Z,1026.32
2018-12-25T11:23:17.984Z,1026.33
2018-12-25T11:24:16.776Z,1026.34
2018-12-25T11:25:16.876Z,1026.41
2018-12-25T11:26:16.709Z,1026.40
2018-12-25T11:27:18.825Z,1026.36
2018-12-25T11:28:16.656Z,1026.36
2018-12-25T11:29:16.639Z,1026.32
2018-12-25T11:30:16.616Z,1026.34
2018-12-25T11:31:16.614Z,1026.38
2018-12-25T11:32:16.540Z,1026.36
2018-12-25T11:33:16.605Z,1026.37
2018-12-25T11:34:16.465Z,1026.35
2018-12-25T11:35:17.560Z,1026.33
2018-12-25T11:36:16.418Z,1026.35
2018-12-25T11:37:16.386Z,1026.34
2018-12-25T11:38:16.354Z,1026.29
2018-12-25T11:39:16.332Z,1026.30
2018-12-25T11:40:16.471Z,1026.34
2018-12-25T11:41:16.265Z,1026.34
2018-12-25T11:42:16.233Z,1026.34
2018-12-25T11:43:18.338Z,1026.30
2018-12-25T11:44:16.187Z,1026.35
2018-12-25T11:45:16.152Z,1026.34
2018-12-25T11:46:16.115Z,1026.28
2018-12-25T11:47:16.107Z,1026.31
2018-12-25T11:48:17.276Z,1026.29
2018-12-25T11:49:16.065Z,1026.33
2018-12-25T11:50:16.142Z,1026.34
2018-12-25T11:51:15.980Z,1026.31
2018-12-25T11:52:16.139Z,1026.30
2018-12-25T11:53:15.916Z,1026.34
2018-12-25T11:54:16.049Z,1026.36
2018-12-25T11:55:15.847Z,1026.38
2018-12-25T11:56:15.951Z,1026.34
2018-12-25T11:57:15.808Z,1026.38
2018-12-25T11:58:16.902Z,1026.38
2018-12-25T11:59:15.732Z,1026.37
2018-12-25T12:00:15.710Z,1026.33
2018-12-25T12:01:15.786Z,1026.34
2018-12-25T12:02:17.136Z,1026.36
2018-12-25T12:03:15.602Z,1026.34
2018-12-25T12:04:15.593Z,1026.31
2018-12-25T12:05:15.559Z,1026.33
2018-12-25T12:06:15.723Z,1026.38
2018-12-25T12:07:15.495Z,1026.33
2018-12-25T12:08:15.444Z,1026.37
2018-12-25T12:09:15.422Z,1026.32
2018-12-25T12:10:15.389Z,1026.32
2018-12-25T12:11:15.360Z,1026.27
2018-12-25T12:12:15.378Z,1026.34
2018-12-25T12:13:15.303Z,1026.31
2018-12-25T12:14:15.279Z,1026.32
2018-12-25T12:15:15.247Z,1026.26
2018-12-25T12:16:15.228Z,1026.28
2018-12-25T12:17:15.336Z,1026.24
2018-12-25T12:18:15.155Z,1026.22
2018-12-25T12:19:15.118Z,1026.21
2018-12-25T12:20:15.093Z,1026.20
2018-12-25T12:21:15.066Z,1026.23
2018-12-25T12:22:15.048Z,1026.23
2018-12-25T12:23:15.011Z,1026.21
2018-12-25T12:24:14.989Z,1026.17
2018-12-25T12:25:14.943Z,1026.20
2018-12-25T12:26:14.924Z,1026.19
2018-12-25T12:27:14.883Z,1026.22
2018-12-25T12:28:14.867Z,1026.27
2018-12-25T12:29:14.848Z,1026.22
2018-12-25T12:30:14.798Z,1026.22
2018-12-25T12:31:14.772Z,1026.22